Time;durP1;ratioP1;P1;durP2;ratioP2;P2;SDS_P1;SDS_P2;PMS_P1;PMS_P2;Temp;Humidity;BMP_temperature;BMP_pressure;BME280_temperature;BME280_humidity;BME280_pressure;Samples;Min_cycle;Max_cycle;Signal;HPM_P1;HPM_P2
2023/03/20 00:01:01;;;;;;;21.50;17.10;;;;;;;;;;10381540;28;20413;-84
2023/03/20 00:06:03;;;;;;;21.92;16.20;;;;;;;;;;10384460;28;20979;-83
2023/03/20 00:11:27;;;;;;;20.07;16.77;;;;;;;;;;10399247;28;20456;-83
2023/03/20 00:16:32;;;;;;;23.20;16.60;;;;;;;;;;10404043;28;20414;-84
2023/03/20 00:21:34;;;;;;;20.23;16.40;;;;;;;;;;10393230;28;20891;-83
2023/03/20 00:26:38;;;;;;;22.23;16.45;;;;;;;;;;10395869;28;20494;-83
2023/03/20 00:31:40;;;;;;;20.35;16.13;;;;;;;;;;10390615;28;20448;-83
2023/03/20 00:36:42;;;;;;;22.50;17.00;;;;;;;;;;10392028;28;20749;-84
2023/03/20 00:41:50;;;;;;;20.87;16.60;;;;;;;;;;10399380;28;20437;-84
2023/03/20 00:46:54;;;;;;;22.17;17.13;;;;;;;;;;10385011;28;20542;-84
2023/03/20 00:51:57;;;;;;;23.00;18.27;;;;;;;;;;10389251;28;20409;-84
2023/03/20 00:57:02;;;;;;;24.30;18.83;;;;;;;;;;10383469;28;20409;-84
2023/03/20 01:02:05;;;;;;;25.58;19.60;;;;;;;;;;10388857;28;20456;-84
2023/03/20 01:07:11;;;;;;;24.42;19.38;;;;;;;;;;10396312;28;20433;-84
2023/03/20 01:12:16;;;;;;;27.17;21.23;;;;;;;;;;10397648;28;20441;-83
2023/03/20 01:17:21;;;;;;;27.17;20.13;;;;;;;;;;10373483;28;20473;-84
2023/03/20 01:22:23;;;;;;;26.20;20.50;;;;;;;;;;10385354;28;20441;-84
2023/03/20 01:27:26;;;;;;;27.33;20.80;;;;;;;;;;10371703;28;20490;-83
2023/03/20 01:32:28;;;;;;;24.92;19.98;;;;;;;;;;10375703;28;20401;-84
2023/03/20 01:37:32;;;;;;;26.83;20.87;;;;;;;;;;10387036;28;20409;-84
2023/03/20 01:42:35;;;;;;;25.87;20.43;;;;;;;;;;10399598;28;20436;-84
2023/03/20 01:47:37;;;;;;;25.20;20.47;;;;;;;;;;10378005;28;20514;-84
2023/03/20 01:52:39;;;;;;;25.70;20.23;;;;;;;;;;10390995;28;20848;-84
2023/03/20 01:57:42;;;;;;;27.92;20.98;;;;;;;;;;10398811;28;20417;-83
2023/03/20 02:02:46;;;;;;;28.15;21.48;;;;;;;;;;10377699;28;20410;-83
2023/03/20 02:08:02;;;;;;;26.30;21.23;;;;;;;;;;10388222;28;20433;-84
2023/03/20 02:13:06;;;;;;;26.97;21.00;;;;;;;;;;10376117;28;20952;-83
2023/03/20 02:18:08;;;;;;;27.30;21.33;;;;;;;;;;10377595;28;20441;-84
2023/03/20 02:23:38;;;;;;;31.13;21.63;;;;;;;;;;10392023;28;20479;-83
2023/03/20 02:29:27;;;;;;;27.37;20.87;;;;;;;;;;10388667;28;20445;-83
2023/03/20 02:35:21;;;;;;;26.67;20.55;;;;;;;;;;10376059;28;20414;-83
2023/03/20 02:40:33;;;;;;;25.50;21.40;;;;;;;;;;10398192;28;20407;-84
2023/03/20 02:45:43;;;;;;;25.40;20.48;;;;;;;;;;10384231;28;20431;-84
2023/03/20 02:50:49;;;;;;;24.35;19.77;;;;;;;;;;10385724;28;20469;-83
2023/03/20 02:55:59;;;;;;;25.75;20.33;;;;;;;;;;10398400;28;20409;-83
2023/03/20 03:01:07;;;;;;;27.52;20.38;;;;;;;;;;10379733;28;20415;-84
2023/03/20 03:06:13;;;;;;;26.20;19.70;;;;;;;;;;10386233;28;20425;-84
2023/03/20 03:11:16;;;;;;;25.67;20.52;;;;;;;;;;10407539;28;20775;-83
2023/03/20 03:16:24;;;;;;;26.77;20.30;;;;;;;;;;10385947;28;20913;-83
2023/03/20 03:21:28;;;;;;;25.95;20.08;;;;;;;;;;10394893;28;20769;-83
2023/03/20 03:26:37;;;;;;;25.63;20.33;;;;;;;;;;10404420;28;20930;-83
2023/03/20 03:31:39;;;;;;;25.17;20.02;;;;;;;;;;10386159;28;20411;-83
2023/03/20 03:36:50;;;;;;;26.52;20.83;;;;;;;;;;10395681;28;20443;-83
2023/03/20 03:42:00;;;;;;;25.52;19.55;;;;;;;;;;10378488;28;20411;-83
2023/03/20 03:47:06;;;;;;;25.65;19.75;;;;;;;;;;10387465;28;20505;-83
2023/03/20 03:52:12;;;;;;;26.25;20.40;;;;;;;;;;10397632;28;20469;-83
2023/03/20 03:57:20;;;;;;;26.50;20.23;;;;;;;;;;10396474;28;20771;-83
2023/03/20 04:02:23;;;;;;;27.73;20.80;;;;;;;;;;10387086;28;20492;-83
2023/03/20 04:07:28;;;;;;;26.92;20.52;;;;;;;;;;10397761;28;20435;-83
2023/03/20 04:12:37;;;;;;;25.13;20.05;;;;;;;;;;10399121;28;20417;-85
2023/03/20 04:17:39;;;;;;;25.98;20.33;;;;;;;;;;10385921;28;20412;-83
2023/03/20 04:22:41;;;;;;;26.35;20.42;;;;;;;;;;10397011;28;20413;-83
2023/03/20 04:27:45;;;;;;;25.17;19.70;;;;;;;;;;10376407;28;20437;-83
2023/03/20 04:32:47;;;;;;;26.42;19.20;;;;;;;;;;10395188;28;20419;-83
2023/03/20 04:37:49;;;;;;;24.60;18.73;;;;;;;;;;10380518;28;20829;-84
2023/03/20 04:42:52;;;;;;;25.10;18.88;;;;;;;;;;10382907;28;20413;-83
2023/03/20 04:47:54;;;;;;;26.88;18.90;;;;;;;;;;10385637;28;20427;-84
2023/03/20 04:52:56;;;;;;;25.17;19.33;;;;;;;;;;10381447;28;20418;-82
2023/03/20 04:57:59;;;;;;;24.88;18.80;;;;;;;;;;10387782;28;20433;-83
2023/03/20 05:03:03;;;;;;;24.45;17.95;;;;;;;;;;10388295;28;20417;-83
2023/03/20 05:08:05;;;;;;;23.87;18.90;;;;;;;;;;10381042;28;20906;-84
2023/03/20 05:13:08;;;;;;;23.07;17.97;;;;;;;;;;10388391;28;20412;-83
2023/03/20 05:18:10;;;;;;;25.83;18.90;;;;;;;;;;10392947;28;20400;-82
2023/03/20 05:23:12;;;;;;;22.50;18.17;;;;;;;;;;10396480;28;20409;-83
2023/03/20 05:28:16;;;;;;;25.25;18.77;;;;;;;;;;10377492;28;20427;-83
2023/03/20 05:33:18;;;;;;;27.33;18.50;;;;;;;;;;10385336;28;20406;-83
2023/03/20 05:38:21;;;;;;;25.08;18.08;;;;;;;;;;10374307;28;20402;-83
2023/03/20 05:43:25;;;;;;;22.45;17.27;;;;;;;;;;10383132;28;20441;-83
2023/03/20 05:48:27;;;;;;;27.40;19.63;;;;;;;;;;10390210;28;20425;-83
2023/03/20 05:53:29;;;;;;;24.90;18.67;;;;;;;;;;10387190;28;20407;-84
2023/03/20 05:58:32;;;;;;;26.58;19.05;;;;;;;;;;10396896;28;20792;-84
2023/03/20 06:03:35;;;;;;;27.25;19.95;;;;;;;;;;10397181;28;20508;-84
2023/03/20 06:08:37;;;;;;;28.00;19.80;;;;;;;;;;10397814;28;20418;-83
2023/03/20 06:13:43;;;;;;;25.77;18.88;;;;;;;;;;10400526;28;20421;-84
2023/03/20 06:18:45;;;;;;;28.52;19.40;;;;;;;;;;10379544;28;20428;-84
2023/03/20 06:23:46;;;;;;;25.65;19.48;;;;;;;;;;10396645;28;20447;-85
2023/03/20 06:28:50;;;;;;;31.25;21.30;;;;;;;;;;10401002;28;20953;-84
2023/03/20 06:33:52;;;;;;;37.42;24.33;;;;;;;;;;10399554;28;20408;-84
2023/03/20 06:38:56;;;;;;;35.53;23.48;;;;;;;;;;10395287;28;20420;-84
2023/03/20 06:43:59;;;;;;;32.43;22.30;;;;;;;;;;10395587;28;20417;-85
2023/03/20 06:49:01;;;;;;;29.13;21.07;;;;;;;;;;10400618;28;20457;-84
2023/03/20 06:54:03;;;;;;;28.90;19.88;;;;;;;;;;10397917;28;20418;-84
2023/03/20 06:59:06;;;;;;;29.50;20.08;;;;;;;;;;10389287;28;20898;-84
2023/03/20 07:04:08;;;;;;;25.55;19.38;;;;;;;;;;10394331;28;20413;-84
2023/03/20 07:09:10;;;;;;;27.33;20.42;;;;;;;;;;10389753;28;20428;-84
2023/03/20 07:14:14;;;;;;;28.02;19.60;;;;;;;;;;10399565;28;20526;-83
2023/03/20 07:19:15;;;;;;;25.75;19.08;;;;;;;;;;10394550;28;20449;-83
2023/03/20 07:24:17;;;;;;;33.10;19.97;;;;;;;;;;10393555;28;20471;-84
2023/03/20 07:29:21;;;;;;;26.58;18.70;;;;;;;;;;10401150;28;20514;-84
2023/03/20 07:34:22;;;;;;;29.05;19.25;;;;;;;;;;10407062;28;20405;-83
2023/03/20 07:39:24;;;;;;;27.70;18.75;;;;;;;;;;10394144;28;20437;-83
2023/03/20 07:44:28;;;;;;;27.88;19.27;;;;;;;;;;10403867;28;20497;-83
2023/03/20 07:49:29;;;;;;;30.70;19.50;;;;;;;;;;10404297;28;20429;-83
2023/03/20 07:54:31;;;;;;;26.17;19.23;;;;;;;;;;10398189;28;20763;-83
2023/03/20 07:59:34;;;;;;;30.33;20.20;;;;;;;;;;10403833;28;20512;-84
2023/03/20 08:04:36;;;;;;;26.40;19.25;;;;;;;;;;10404935;28;20515;-83
2023/03/20 08:09:38;;;;;;;29.33;19.27;;;;;;;;;;10396689;28;20504;-83
2023/03/20 08:14:42;;;;;;;25.73;17.95;;;;;;;;;;10404989;28;20413;-83
2023/03/20 08:19:44;;;;;;;28.58;18.40;;;;;;;;;;10402344;28;20414;-83
2023/03/20 08:24:46;;;;;;;24.27;17.30;;;;;;;;;;10397168;28;20413;-83
2023/03/20 08:29:49;;;;;;;28.13;17.85;;;;;;;;;;10408835;28;20435;-84
2023/03/20 08:34:51;;;;;;;23.80;17.73;;;;;;;;;;10420753;28;20437;-83
2023/03/20 08:39:53;;;;;;;27.23;17.83;;;;;;;;;;10414665;28;20484;-83
2023/03/20 08:44:56;;;;;;;26.70;18.20;;;;;;;;;;10408742;28;20939;-84
2023/03/20 08:49:58;;;;;;;26.17;18.42;;;;;;;;;;10416359;28;20903;-84
2023/03/20 08:55:00;;;;;;;25.97;17.30;;;;;;;;;;10423310;28;20518;-84
2023/03/20 09:00:05;;;;;;;26.00;17.25;;;;;;;;;;10418711;28;20412;-84
2023/03/20 09:05:07;;;;;;;22.90;17.17;;;;;;;;;;10414538;28;20842;-83
2023/03/20 09:10:11;;;;;;;25.70;17.70;;;;;;;;;;10416990;28;20462;-83
2023/03/20 09:15:14;;;;;;;24.02;17.00;;;;;;;;;;10415698;28;20484;-83
2023/03/20 09:20:16;;;;;;;25.17;16.40;;;;;;;;;;10415288;28;20438;-83
2023/03/20 09:25:18;;;;;;;24.75;16.33;;;;;;;;;;10417674;28;20427;-84
2023/03/20 09:30:22;;;;;;;21.15;15.73;;;;;;;;;;10457404;22;20540;-83
2023/03/20 09:35:24;;;;;;;22.47;14.83;;;;;;;;;;10474013;28;20482;-83
2023/03/20 09:40:29;;;;;;;22.55;14.68;;;;;;;;;;10456279;28;20907;-84
2023/03/20 09:45:45;;;;;;;22.65;14.75;;;;;;;;;;10465974;28;20506;-83
2023/03/20 09:50:52;;;;;;;21.40;13.55;;;;;;;;;;10470864;28;20792;-83
2023/03/20 09:55:55;;;;;;;19.70;12.20;;;;;;;;;;10455243;28;20415;-83
2023/03/20 10:01:01;;;;;;;16.92;12.23;;;;;;;;;;10456449;28;20410;-84
2023/03/20 10:06:07;;;;;;;21.67;12.82;;;;;;;;;;10469260;28;20452;-83
2023/03/20 10:11:27;;;;;;;21.83;13.57;;;;;;;;;;10454292;28;20434;-83
2023/03/20 10:16:43;;;;;;;20.20;13.35;;;;;;;;;;10470540;28;20488;-83
2023/03/20 10:21:48;;;;;;;19.27;13.20;;;;;;;;;;10471638;28;20475;-83
2023/03/20 10:26:53;;;;;;;20.92;13.55;;;;;;;;;;10462124;28;20427;-83
2023/03/20 10:32:06;;;;;;;15.63;11.52;;;;;;;;;;10475339;28;20515;-83
2023/03/20 10:37:21;;;;;;;16.73;11.43;;;;;;;;;;10470960;28;20412;-83
2023/03/20 10:42:28;;;;;;;17.38;11.20;;;;;;;;;;10464262;28;20416;-83
2023/03/20 10:47:36;;;;;;;15.67;11.33;;;;;;;;;;10475041;28;20923;-83
2023/03/20 10:52:41;;;;;;;14.52;9.13;;;;;;;;;;10467377;28;20414;-83
2023/03/20 10:57:47;;;;;;;13.00;8.52;;;;;;;;;;10465730;28;20490;-84
2023/03/20 11:02:51;;;;;;;13.48;9.25;;;;;;;;;;10471268;28;20775;-83
2023/03/20 11:08:03;;;;;;;12.95;8.82;;;;;;;;;;10462110;28;20410;-84
2023/03/20 11:13:18;;;;;;;12.70;9.00;;;;;;;;;;10461092;28;20426;-84
2023/03/20 11:18:24;;;;;;;17.08;12.48;;;;;;;;;;10480312;28;20536;-83
2023/03/20 11:23:30;;;;;;;19.38;14.30;;;;;;;;;;10461749;28;20407;-84
2023/03/20 11:28:34;;;;;;;17.25;10.90;;;;;;;;;;10466621;28;20453;-83
2023/03/20 11:33:40;;;;;;;22.77;12.32;;;;;;;;;;10474894;28;20502;-84
2023/03/20 11:38:44;;;;;;;19.33;12.30;;;;;;;;;;10456781;28;20964;-83
2023/03/20 11:43:46;;;;;;;17.27;12.03;;;;;;;;;;10463823;28;20796;-84
2023/03/20 11:49:03;;;;;;;18.58;12.02;;;;;;;;;;10481720;28;21312;-83
2023/03/20 11:54:07;;;;;;;22.10;13.23;;;;;;;;;;10458389;28;20407;-84
2023/03/20 11:59:17;;;;;;;18.48;12.57;;;;;;;;;;10468969;28;20415;-84
2023/03/20 12:04:26;;;;;;;22.02;14.43;;;;;;;;;;10473888;28;20431;-83
2023/03/20 12:09:38;;;;;;;19.60;13.90;;;;;;;;;;10458762;28;20423;-83
2023/03/20 12:14:46;;;;;;;19.80;13.93;;;;;;;;;;10470223;28;20446;-83
2023/03/20 12:19:52;;;;;;;21.83;14.17;;;;;;;;;;10469465;28;20411;-83
2023/03/20 12:25:02;;;;;;;25.03;15.67;;;;;;;;;;10450487;28;20495;-83
2023/03/20 12:30:10;;;;;;;20.90;13.90;;;;;;;;;;10458923;28;20435;-89
2023/03/20 12:35:19;;;;;;;17.45;12.63;;;;;;;;;;10466591;28;20435;-83
2023/03/20 12:40:27;;;;;;;23.77;15.38;;;;;;;;;;10456396;28;20415;-83
2023/03/20 12:45:37;;;;;;;22.30;14.95;;;;;;;;;;10463156;28;20417;-83
2023/03/20 12:50:42;;;;;;;19.65;14.13;;;;;;;;;;10450083;28;21186;-83
2023/03/20 12:55:59;;;;;;;20.00;14.43;;;;;;;;;;10449461;28;20458;-83
2023/03/20 13:01:04;;;;;;;22.85;15.82;;;;;;;;;;10458881;28;20538;-83
2023/03/20 13:06:13;;;;;;;20.83;14.63;;;;;;;;;;10444900;28;20482;-83
2023/03/20 13:11:24;;;;;;;26.67;15.23;;;;;;;;;;10453295;28;20424;-83
2023/03/20 13:16:37;;;;;;;21.48;14.40;;;;;;;;;;10454076;28;20418;-83
2023/03/20 13:21:49;;;;;;;22.07;14.73;;;;;;;;;;10442517;28;20423;-83
2023/03/20 13:27:00;;;;;;;18.65;14.13;;;;;;;;;;10448504;28;20425;-83
2023/03/20 13:32:13;;;;;;;20.25;14.05;;;;;;;;;;10452363;28;20504;-84
2023/03/20 13:37:21;;;;;;;20.25;13.95;;;;;;;;;;10442076;28;20878;-83
2023/03/20 13:42:29;;;;;;;19.52;13.52;;;;;;;;;;10435273;28;20414;-84
2023/03/20 13:47:32;;;;;;;20.08;13.48;;;;;;;;;;10448788;28;20457;-84
2023/03/20 13:52:41;;;;;;;19.55;14.07;;;;;;;;;;10444537;28;20499;-83
2023/03/20 13:58:01;;;;;;;20.08;14.77;;;;;;;;;;10458285;28;20890;-83
2023/03/20 14:03:15;;;;;;;21.13;14.48;;;;;;;;;;10467581;28;20398;-83
2023/03/20 14:08:35;;;;;;;17.35;13.38;;;;;;;;;;10441377;28;20922;-83
2023/03/20 14:13:38;;;;;;;20.00;14.10;;;;;;;;;;10457350;28;20746;-83
2023/03/20 14:18:41;;;;;;;18.75;13.98;;;;;;;;;;10468745;28;20414;-83
2023/03/20 14:23:49;;;;;;;17.08;13.10;;;;;;;;;;10457591;28;20772;-83
2023/03/20 14:29:01;;;;;;;18.33;13.50;;;;;;;;;;10464748;28;20433;-84
2023/03/20 14:34:16;;;;;;;17.33;13.30;;;;;;;;;;10464340;28;20468;-84
2023/03/20 14:39:35;;;;;;;16.63;12.20;;;;;;;;;;10453637;28;20416;-83
2023/03/20 14:44:50;;;;;;;17.98;12.82;;;;;;;;;;10469547;28;20409;-84
2023/03/20 14:49:57;;;;;;;18.08;12.73;;;;;;;;;;10463733;28;20514;-84
2023/03/20 14:55:29;;;;;;;19.05;12.55;;;;;;;;;;10457688;28;20413;-84
2023/03/20 15:00:36;;;;;;;17.50;12.63;;;;;;;;;;10458087;28;20785;-84
2023/03/20 15:05:39;;;;;;;20.48;12.68;;;;;;;;;;10454918;28;20408;-84
2023/03/20 15:10:49;;;;;;;17.53;12.77;;;;;;;;;;10449324;28;20512;-84
2023/03/20 15:15:56;;;;;;;18.48;12.38;;;;;;;;;;10457257;28;20420;-84
2023/03/20 15:20:58;;;;;;;19.27;13.30;;;;;;;;;;10452358;28;20402;-84
2023/03/20 15:26:01;;;;;;;19.63;14.07;;;;;;;;;;10456542;28;20503;-85
2023/03/20 15:31:05;;;;;;;19.25;12.85;;;;;;;;;;10451250;28;20423;-83
2023/03/20 15:36:09;;;;;;;18.33;12.55;;;;;;;;;;10466127;28;20469;-85
2023/03/20 15:41:25;;;;;;;17.17;12.32;;;;;;;;;;10459230;28;20410;-86
2023/03/20 15:46:27;;;;;;;17.35;12.10;;;;;;;;;;10458463;28;20991;-84
2023/03/20 15:51:29;;;;;;;17.70;12.83;;;;;;;;;;10456629;28;20404;-84
2023/03/20 15:56:32;;;;;;;17.20;12.82;;;;;;;;;;10464819;28;20404;-85
2023/03/20 16:01:34;;;;;;;16.15;11.60;;;;;;;;;;10455458;28;20526;-85
2023/03/20 16:06:46;;;;;;;16.83;12.45;;;;;;;;;;10452575;28;20578;-83
2023/03/20 16:11:57;;;;;;;15.95;12.32;;;;;;;;;;10452973;28;20933;-86
2023/03/20 16:17:01;;;;;;;18.10;12.27;;;;;;;;;;10445709;28;20501;-85
2023/03/20 16:22:12;;;;;;;15.73;12.80;;;;;;;;;;10463813;28;20408;-86
2023/03/20 16:27:23;;;;;;;17.37;12.67;;;;;;;;;;10469885;28;20426;-86
2023/03/20 16:32:33;;;;;;;18.03;12.73;;;;;;;;;;10464374;28;20463;-86
2023/03/20 16:37:41;;;;;;;17.60;12.75;;;;;;;;;;10456337;28;20948;-86
2023/03/20 16:42:45;;;;;;;17.63;12.90;;;;;;;;;;10473612;28;20495;-83
2023/03/20 16:47:48;;;;;;;19.83;13.18;;;;;;;;;;10460011;28;20423;-85
2023/03/20 16:52:52;;;;;;;23.08;14.65;;;;;;;;;;10459628;28;20424;-83
2023/03/20 16:57:59;;;;;;;17.40;13.63;;;;;;;;;;10470838;28;20461;-83
2023/03/20 17:03:14;;;;;;;20.67;14.70;;;;;;;;;;10457351;28;20407;-83
2023/03/20 17:14:44;;;;;;;17.58;14.40;;;;;;;;;;10271381;28;20446;-84
2023/03/20 17:19:48;;;;;;;19.98;15.05;;;;;;;;;;10444590;28;20801;-84
2023/03/20 17:24:51;;;;;;;18.13;14.70;;;;;;;;;;10456523;28;20422;-84
2023/03/20 17:29:55;;;;;;;20.08;14.35;;;;;;;;;;10448279;28;20442;-84
2023/03/20 17:34:57;;;;;;;19.30;14.53;;;;;;;;;;10451406;28;20435;-84
2023/03/20 17:39:59;;;;;;;19.85;14.80;;;;;;;;;;10456062;28;20886;-84
2023/03/20 17:45:03;;;;;;;23.00;15.93;;;;;;;;;;10450689;28;20423;-84
2023/03/20 17:50:05;;;;;;;23.13;16.95;;;;;;;;;;10446117;28;20419;-84
2023/03/20 17:55:11;;;;;;;22.40;15.77;;;;;;;;;;10449698;28;20446;-84
2023/03/20 18:00:18;;;;;;;20.48;15.80;;;;;;;;;;10449036;28;20404;-83
2023/03/20 18:05:20;;;;;;;19.70;15.00;;;;;;;;;;10448397;28;20928;-84
2023/03/20 18:10:26;;;;;;;20.07;14.07;;;;;;;;;;10456377;28;20531;-84
2023/03/20 18:15:32;;;;;;;19.48;15.05;;;;;;;;;;10448980;28;20419;-83
2023/03/20 18:20:36;;;;;;;20.63;14.33;;;;;;;;;;10460858;28;20442;-85
2023/03/20 18:25:38;;;;;;;22.77;15.65;;;;;;;;;;10452539;28;20487;-84
2023/03/20 18:31:02;;;;;;;22.63;15.27;;;;;;;;;;10460657;28;20896;-84
2023/03/20 18:36:04;;;;;;;21.90;16.27;;;;;;;;;;10461732;28;20481;-85
2023/03/20 18:41:07;;;;;;;26.77;17.33;;;;;;;;;;10483002;28;20477;-85
2023/03/20 18:46:14;;;;;;;25.35;17.75;;;;;;;;;;10465700;28;20400;-84
2023/03/20 18:51:15;;;;;;;22.52;16.27;;;;;;;;;;10474148;28;20444;-85
2023/03/20 18:56:19;;;;;;;33.38;21.02;;;;;;;;;;10476359;28;20410;-84
2023/03/20 19:01:23;;;;;;;25.45;18.92;;;;;;;;;;10459377;28;20447;-84
2023/03/20 19:06:25;;;;;;;22.50;16.45;;;;;;;;;;10458152;28;20495;-85
2023/03/20 19:11:27;;;;;;;22.55;16.55;;;;;;;;;;10474150;28;20483;-85
2023/03/20 19:16:33;;;;;;;23.97;17.17;;;;;;;;;;10459102;28;20447;-85
2023/03/20 19:21:35;;;;;;;24.43;16.83;;;;;;;;;;10465800;28;20415;-85
2023/03/20 19:26:38;;;;;;;21.92;16.88;;;;;;;;;;10470250;28;20445;-85
2023/03/20 19:31:41;;;;;;;25.60;17.50;;;;;;;;;;10426647;28;20983;-85
2023/03/20 19:36:47;;;;;;;25.08;17.08;;;;;;;;;;10417638;28;20819;-83
2023/03/20 19:41:50;;;;;;;25.20;17.57;;;;;;;;;;10422669;28;20508;-84
2023/03/20 19:46:55;;;;;;;24.85;18.08;;;;;;;;;;10411732;28;20417;-84
2023/03/20 19:51:57;;;;;;;25.37;19.10;;;;;;;;;;10420457;28;20974;-84
2023/03/20 19:56:59;;;;;;;28.65;20.25;;;;;;;;;;10411725;28;20421;-85
2023/03/20 20:02:02;;;;;;;25.73;19.85;;;;;;;;;;10408044;28;20475;-85
2023/03/20 20:07:04;;;;;;;25.00;18.98;;;;;;;;;;10412080;28;20422;-84
2023/03/20 20:12:07;;;;;;;25.95;18.92;;;;;;;;;;10411710;28;20791;-84
2023/03/20 20:17:10;;;;;;;28.88;20.92;;;;;;;;;;10407962;28;20454;-85
2023/03/20 20:22:12;;;;;;;26.40;20.10;;;;;;;;;;10413299;28;20414;-85
2023/03/20 20:27:14;;;;;;;29.77;21.25;;;;;;;;;;10423535;28;20413;-85
2023/03/20 20:32:19;;;;;;;26.35;20.67;;;;;;;;;;10445823;28;20500;-85
2023/03/20 20:37:22;;;;;;;29.97;21.43;;;;;;;;;;10465227;28;20473;-85
2023/03/20 20:42:24;;;;;;;30.13;21.27;;;;;;;;;;10465508;28;20418;-84
2023/03/20 20:47:27;;;;;;;29.77;21.73;;;;;;;;;;10461369;28;20883;-84
2023/03/20 20:52:29;;;;;;;33.42;25.10;;;;;;;;;;10464772;28;21080;-84
2023/03/20 20:57:31;;;;;;;32.33;24.10;;;;;;;;;;10464470;28;20931;-84
2023/03/20 21:02:34;;;;;;;33.97;23.83;;;;;;;;;;10456293;28;20830;-85
2023/03/20 21:07:36;;;;;;;33.40;23.92;;;;;;;;;;10460426;28;20439;-84
2023/03/20 21:12:38;;;;;;;33.28;24.13;;;;;;;;;;10458690;28;20890;-84
2023/03/20 21:17:41;;;;;;;32.57;23.27;;;;;;;;;;10461212;28;20485;-85
2023/03/20 21:22:43;;;;;;;30.85;23.95;;;;;;;;;;10466663;28;20494;-85
2023/03/20 21:27:45;;;;;;;30.60;24.38;;;;;;;;;;10451902;28;21101;-84
2023/03/20 21:32:49;;;;;;;34.47;25.42;;;;;;;;;;10451206;28;20412;-85
2023/03/20 21:37:51;;;;;;;30.15;22.83;;;;;;;;;;10466400;28;20423;-85
2023/03/20 21:42:53;;;;;;;34.92;24.90;;;;;;;;;;10460622;28;20422;-85
2023/03/20 21:47:56;;;;;;;33.08;24.45;;;;;;;;;;10453691;28;20833;-85
2023/03/20 21:52:58;;;;;;;32.70;24.20;;;;;;;;;;10468163;28;20443;-85
2023/03/20 21:58:00;;;;;;;35.37;23.73;;;;;;;;;;10446499;28;20423;-87
2023/03/20 22:03:03;;;;;;;32.95;23.67;;;;;;;;;;10458551;28;20415;-87
2023/03/20 22:08:05;;;;;;;32.40;23.27;;;;;;;;;;10458536;28;20494;-87
2023/03/20 22:13:07;;;;;;;35.55;23.70;;;;;;;;;;10453301;28;20425;-87
2023/03/20 22:18:10;;;;;;;32.60;23.77;;;;;;;;;;10457778;28;20872;-88
2023/03/20 22:23:12;;;;;;;33.47;24.13;;;;;;;;;;10451913;28;20870;-86
2023/03/20 22:28:14;;;;;;;39.60;27.33;;;;;;;;;;10457911;28;20813;-88
2023/03/20 22:33:18;;;;;;;36.70;26.88;;;;;;;;;;10433568;28;20408;-88
2023/03/20 22:38:20;;;;;;;38.40;29.20;;;;;;;;;;10468075;28;20833;-88
2023/03/20 22:43:22;;;;;;;46.45;30.33;;;;;;;;;;10448957;28;20414;-87
2023/03/20 22:48:26;;;;;;;46.03;33.67;;;;;;;;;;10464636;28;20422;-88
2023/03/20 22:53:27;;;;;;;47.80;33.70;;;;;;;;;;10473829;28;20491;-88
2023/03/20 22:58:29;;;;;;;48.40;35.00;;;;;;;;;;10465937;28;20443;-88
2023/03/20 23:03:32;;;;;;;49.77;35.20;;;;;;;;;;10473252;28;20414;-88
2023/03/20 23:08:35;;;;;;;47.03;35.97;;;;;;;;;;10478375;28;20595;-88
2023/03/20 23:13:37;;;;;;;48.15;35.10;;;;;;;;;;10462716;28;20426;-87
2023/03/20 23:18:41;;;;;;;48.67;33.78;;;;;;;;;;10470937;28;20419;-87
2023/03/20 23:23:43;;;;;;;48.00;34.33;;;;;;;;;;10473680;28;20420;-88
2023/03/20 23:28:46;;;;;;;48.03;35.30;;;;;;;;;;10464735;28;20458;-87
2023/03/20 23:33:50;;;;;;;50.20;36.03;;;;;;;;;;10476972;28;20406;-86
2023/03/20 23:38:52;;;;;;;47.67;33.80;;;;;;;;;;10468178;28;20980;-88
2023/03/20 23:43:54;;;;;;;48.77;34.00;;;;;;;;;;10474190;28;20765;-86
2023/03/20 23:48:57;;;;;;;47.05;34.42;;;;;;;;;;10471508;28;20423;-86
2023/03/20 23:53:59;;;;;;;50.22;34.67;;;;;;;;;;10480493;28;20404;-87
2023/03/20 23:59:01;;;;;;;47.45;33.78;;;;;;;;;;10477490;28;20468;-88
